createdAt,value
2018-09-22T00:00:48.338Z,99.90
2018-09-22T00:03:19.473Z,99.90
2018-09-22T00:05:50.272Z,99.90
2018-09-22T00:08:20.581Z,99.90
2018-09-22T00:10:50.957Z,99.90
2018-09-22T00:15:51.425Z,99.90
2018-09-22T00:18:21.677Z,99.90
2018-09-22T00:20:52.122Z,99.90
2018-09-22T00:23:22.525Z,99.90
2018-09-22T00:25:52.965Z,99.90
2018-09-22T00:28:23.274Z,99.90
2018-09-22T00:30:53.610Z,99.90
2018-09-22T00:33:24.233Z,99.90
2018-09-22T00:35:54.672Z,99.90
2018-09-22T00:38:25.257Z,99.90
2018-09-22T00:40:55.666Z,99.90
2018-09-22T00:43:25.872Z,99.90
2018-09-22T00:48:25.700Z,99.90
2018-09-22T00:50:56.030Z,99.90
2018-09-22T00:55:55.913Z,99.90
2018-09-22T00:58:26.357Z,99.90
2018-09-22T01:00:56.677Z,99.90
2018-09-22T01:03:27.074Z,99.90
2018-09-22T01:05:57.285Z,99.90
2018-09-22T01:08:27.718Z,99.90
2018-09-22T01:10:57.913Z,99.90
2018-09-22T01:15:57.964Z,99.90
2018-09-22T01:18:28.366Z,99.90
2018-09-22T01:23:28.398Z,99.90
2018-09-22T01:25:58.650Z,99.90
2018-09-22T01:28:29.116Z,99.90
2018-09-22T01:30:59.740Z,99.90
2018-09-22T01:33:30.094Z,99.90
2018-09-22T01:36:00.518Z,99.90
2018-09-22T01:38:31.228Z,99.90
2018-09-22T01:41:01.649Z,99.90
2018-09-22T01:43:32.089Z,99.90
2018-09-22T01:46:02.431Z,99.90
2018-09-22T01:48:32.918Z,99.90
2018-09-22T01:51:03.423Z,99.90
2018-09-22T01:53:33.694Z,99.90
2018-09-22T01:56:04.158Z,99.90
2018-09-22T02:01:04.102Z,99.90
2018-09-22T02:03:34.428Z,99.90
2018-09-22T02:06:04.897Z,99.90
2018-09-22T02:08:35.286Z,99.90
2018-09-22T02:11:05.598Z,99.90
2018-09-22T02:13:36.089Z,99.90
2018-09-22T02:18:36.321Z,99.90
2018-09-22T02:21:06.731Z,99.90
2018-09-22T02:23:37.137Z,99.90
2018-09-22T02:26:07.433Z,99.90
2018-09-22T02:28:37.714Z,99.90
2018-09-22T02:31:08.129Z,99.90
2018-09-22T02:33:38.393Z,99.90
2018-09-22T02:36:08.782Z,99.90
2018-09-22T02:38:39.348Z,99.90
2018-09-22T02:41:09.753Z,99.90
2018-09-22T02:43:40.057Z,99.90
2018-09-22T02:46:10.345Z,99.90
2018-09-22T02:48:40.742Z,99.90
2018-09-22T02:53:40.778Z,99.90
2018-09-22T02:58:40.781Z,99.90
2018-09-22T03:01:11.401Z,99.90
2018-09-22T03:03:41.700Z,99.90
2018-09-22T03:06:12.049Z,99.90
2018-09-22T03:08:42.456Z,99.90
2018-09-22T03:11:12.766Z,99.90
2018-09-22T03:13:43.146Z,99.90
2018-09-22T03:16:13.416Z,99.90
2018-09-22T03:18:43.823Z,99.90
2018-09-22T03:21:14.164Z,99.90
2018-09-22T03:23:44.390Z,99.90
2018-09-22T03:26:14.751Z,99.90
2018-09-22T03:28:45.494Z,99.90
2018-09-22T03:33:45.334Z,99.90
2018-09-22T03:36:15.630Z,99.90
2018-09-22T03:38:45.995Z,99.90
2018-09-22T03:41:16.284Z,99.90
2018-09-22T03:43:46.609Z,99.90
2018-09-22T03:53:45.737Z,99.90
2018-09-22T03:56:16.069Z,99.90
2018-09-22T03:58:46.413Z,99.90
2018-09-22T04:01:16.842Z,99.90
2018-09-22T04:03:47.374Z,99.90
2018-09-22T04:06:17.690Z,99.90
2018-09-22T04:08:48.109Z,99.90
2018-09-22T04:11:18.522Z,99.90
2018-09-22T04:13:48.997Z,99.90
2018-09-22T04:16:19.344Z,99.90
2018-09-22T04:18:49.642Z,99.90
2018-09-22T04:26:19.245Z,99.90
2018-09-22T04:28:49.689Z,99.90
2018-09-22T04:31:20.000Z,99.90
2018-09-22T04:33:50.337Z,99.90
2018-09-22T04:36:20.708Z,99.90
2018-09-22T04:38:51.069Z,99.90
2018-09-22T04:41:21.645Z,99.90
2018-09-22T04:46:21.969Z,99.90
2018-09-22T04:48:52.382Z,99.90
2018-09-22T04:51:22.922Z,99.90
2018-09-22T04:53:53.338Z,99.90
2018-09-22T04:56:23.994Z,99.90
2018-09-22T04:58:54.525Z,99.90
2018-09-22T05:03:54.821Z,99.90
2018-09-22T05:06:25.253Z,99.90
2018-09-22T05:08:55.694Z,99.90
2018-09-22T05:11:26.034Z,99.90
2018-09-22T05:16:26.274Z,99.90
2018-09-22T05:21:26.475Z,99.90
2018-09-22T05:23:56.798Z,99.90
2018-09-22T05:26:27.169Z,99.90
2018-09-22T05:31:27.401Z,99.90
2018-09-22T05:38:56.995Z,99.90
2018-09-22T05:41:27.342Z,99.90
2018-09-22T05:43:57.683Z,99.90
2018-09-22T05:51:27.699Z,99.90
2018-09-22T05:53:58.091Z,99.90
2018-09-22T05:56:28.402Z,99.90
2018-09-22T05:58:58.658Z,99.90
2018-09-22T06:01:29.375Z,99.90
2018-09-22T06:04:00.056Z,99.90
2018-09-22T06:06:30.236Z,99.90
2018-09-22T06:09:00.516Z,99.90
2018-09-22T06:14:00.826Z,99.90
2018-09-22T06:16:31.323Z,99.90
2018-09-22T06:19:01.840Z,99.90
2018-09-22T06:21:32.114Z,99.90
2018-09-22T06:26:31.930Z,99.90
2018-09-22T06:29:02.166Z,99.90
2018-09-22T06:31:32.641Z,99.90
2018-09-22T06:34:03.581Z,99.90
2018-09-22T06:36:34.109Z,99.90
2018-09-22T06:39:05.406Z,99.90
2018-09-22T06:41:35.781Z,99.90
2018-09-22T06:44:06.362Z,99.90
2018-09-22T06:46:36.744Z,99.90
2018-09-22T06:49:07.347Z,99.90
2018-09-22T06:51:37.614Z,99.90
2018-09-22T06:54:07.890Z,99.90
2018-09-22T06:56:38.178Z,99.90
2018-09-22T06:59:08.498Z,99.90
2018-09-22T07:01:38.790Z,99.90
2018-09-22T07:04:09.097Z,99.90
2018-09-22T07:06:39.384Z,99.90
2018-09-22T07:09:09.698Z,99.90
2018-09-22T07:11:40.143Z,99.90
2018-09-22T07:14:10.390Z,99.90
2018-09-22T07:16:40.728Z,99.90
2018-09-22T07:19:11.035Z,99.90
2018-09-22T07:21:46.391Z,99.90
2018-09-22T07:24:16.795Z,99.90
2018-09-22T07:29:16.906Z,99.90
2018-09-22T07:31:47.381Z,99.90
2018-09-22T07:34:17.550Z,99.90
2018-09-22T07:36:47.892Z,99.90
2018-09-22T07:41:47.897Z,99.90
2018-09-22T07:44:18.238Z,99.90
2018-09-22T07:46:48.544Z,99.90
2018-09-22T07:49:18.915Z,99.90
2018-09-22T07:51:49.676Z,99.90
2018-09-22T07:54:20.226Z,99.90
2018-09-22T07:56:50.528Z,99.90
2018-09-22T07:59:20.999Z,99.90
2018-09-22T08:01:51.339Z,99.90
2018-09-22T08:11:50.559Z,99.90
2018-09-22T08:14:20.994Z,99.90
2018-09-22T08:16:51.358Z,99.90
2018-09-22T08:19:21.956Z,99.90
2018-09-22T08:22:03.897Z,99.90
2018-09-22T08:24:34.312Z,99.90
2018-09-22T08:27:04.723Z,99.90
2018-09-22T08:34:34.546Z,99.90
2018-09-22T08:37:05.048Z,99.90
2018-09-22T08:39:35.562Z,99.90
2018-09-22T08:42:05.889Z,99.90
2018-09-22T08:44:36.283Z,99.90
2018-09-22T08:47:06.631Z,99.90
2018-09-22T08:49:37.158Z,99.90
2018-09-22T08:52:07.646Z,99.90
2018-09-22T08:54:37.958Z,99.90
2018-09-22T08:57:08.326Z,99.90
2018-09-22T08:59:38.767Z,99.90
2018-09-22T09:02:09.259Z,99.90
2018-09-22T09:07:09.419Z,99.90
2018-09-22T09:09:39.914Z,99.90
2018-09-22T09:12:10.335Z,99.90
2018-09-22T09:17:10.449Z,99.90
2018-09-22T09:22:10.543Z,99.90
2018-09-22T09:24:41.135Z,99.90
2018-09-22T09:27:11.539Z,99.90
2018-09-22T09:29:42.012Z,99.90
2018-09-22T09:34:42.187Z,99.90
2018-09-22T09:37:12.559Z,99.90
2018-09-22T09:44:42.282Z,99.90
2018-09-22T09:47:12.766Z,99.90
2018-09-22T09:49:43.311Z,99.90
2018-09-22T09:52:13.677Z,99.90
2018-09-22T09:54:44.005Z,99.90
2018-09-22T09:59:43.866Z,99.90
2018-09-22T10:02:14.350Z,99.90
2018-09-22T10:04:44.760Z,99.60
2018-09-22T10:07:15.095Z,98.20
2018-09-22T10:12:15.026Z,99.10
2018-09-22T10:14:45.422Z,98.90
2018-09-22T10:17:15.715Z,99.90
2018-09-22T10:19:46.058Z,99.90
2018-09-22T10:22:16.475Z,99.90
2018-09-22T10:24:46.759Z,99.90
2018-09-22T10:27:17.334Z,99.90
2018-09-22T10:29:47.550Z,99.30
2018-09-22T10:32:17.955Z,98.50
2018-09-22T10:34:48.339Z,97.30
2018-09-22T10:37:18.677Z,95.40
2018-09-22T10:39:49.203Z,93.60
2018-09-22T10:42:19.827Z,93.40
2018-09-22T10:44:50.142Z,93.10
2018-09-22T10:47:20.590Z,93.60
2018-09-22T10:49:50.900Z,94.60
2018-09-22T10:52:21.237Z,94.00
2018-09-22T10:54:51.831Z,93.90
2018-09-22T10:57:22.386Z,93.30
2018-09-22T10:59:52.647Z,94.00
2018-09-22T11:04:52.488Z,94.70
2018-09-22T11:07:22.667Z,94.40
2018-09-22T11:09:53.105Z,94.70
2018-09-22T11:14:53.339Z,94.00
2018-09-22T11:17:23.786Z,95.30
2018-09-22T11:19:54.075Z,95.70
2018-09-22T11:22:24.864Z,95.90
2018-09-22T11:24:55.198Z,94.80
2018-09-22T11:27:25.434Z,93.80
2018-09-22T11:29:55.790Z,94.50
2018-09-22T11:32:26.122Z,94.90
2018-09-22T11:34:56.442Z,95.50
2018-09-22T11:37:26.911Z,95.10
2018-09-22T11:39:57.203Z,94.70
2018-09-22T11:44:57.218Z,93.40
2018-09-22T11:47:27.504Z,92.60
2018-09-22T11:49:57.720Z,92.60
2018-09-22T11:52:28.293Z,93.70
2018-09-22T11:54:58.751Z,94.10
2018-09-22T11:57:29.111Z,94.40
2018-09-22T11:59:59.353Z,94.80
2018-09-22T12:02:29.735Z,94.20
2018-09-22T12:04:59.898Z,93.20
2018-09-22T12:07:30.235Z,93.10
2018-09-22T12:10:00.583Z,92.20
2018-09-22T12:15:00.806Z,91.30
2018-09-22T12:17:31.287Z,91.40
2018-09-22T12:20:02.075Z,90.70
2018-09-22T12:27:31.818Z,91.00
2018-09-22T12:37:30.959Z,91.90
2018-09-22T12:42:31.022Z,80.60
2018-09-22T12:45:01.294Z,80.30
2018-09-22T12:47:31.774Z,78.10
2018-09-22T12:50:02.267Z,74.80
2018-09-22T12:55:02.378Z,75.20
2018-09-22T12:57:32.873Z,76.10
2018-09-22T13:00:03.379Z,77.30
2018-09-22T13:05:03.578Z,82.20
2018-09-22T13:07:34.083Z,83.40
2018-09-22T13:10:04.431Z,83.60
2018-09-22T13:12:34.818Z,85.60
2018-09-22T13:15:05.204Z,85.70
2018-09-22T13:17:35.647Z,81.00
2018-09-22T13:22:35.964Z,78.80
2018-09-22T13:25:06.386Z,78.70
2018-09-22T13:27:37.027Z,75.70
2018-09-22T13:32:37.496Z,76.80
2018-09-22T13:35:08.014Z,81.50
2018-09-22T13:40:12.030Z,83.50
2018-09-22T13:42:42.338Z,84.10
2018-09-22T13:45:12.783Z,84.50
2018-09-22T13:47:43.619Z,84.10
2018-09-22T13:50:14.079Z,78.30
2018-09-22T13:52:44.599Z,73.70
2018-09-22T13:57:44.823Z,79.70
2018-09-22T14:02:44.773Z,80.30
2018-09-22T14:05:15.075Z,79.90
2018-09-22T14:10:15.443Z,83.10
2018-09-22T14:12:45.759Z,83.00
2018-09-22T14:15:16.194Z,81.90
2018-09-22T14:17:46.611Z,84.20
2018-09-22T14:20:17.103Z,85.10
2018-09-22T14:22:47.426Z,86.40
2018-09-22T14:25:17.631Z,85.40
2018-09-22T14:27:48.076Z,86.60
2018-09-22T14:30:18.439Z,87.00
2018-09-22T14:32:48.787Z,87.70
2018-09-22T14:35:19.275Z,87.30
2018-09-22T14:40:19.254Z,86.30
2018-09-22T14:42:49.607Z,86.40
2018-09-22T14:45:19.915Z,86.70
2018-09-22T14:47:50.287Z,88.00
2018-09-22T14:50:20.523Z,89.00
2018-09-22T14:52:50.931Z,90.00
2018-09-22T14:55:21.243Z,89.00
2018-09-22T14:57:51.583Z,90.10
2018-09-22T15:00:22.026Z,90.10
2018-09-22T15:02:52.532Z,90.00
2018-09-22T15:10:22.003Z,90.70
2018-09-22T15:12:52.461Z,90.00
2018-09-22T15:15:23.191Z,90.30
2018-09-22T15:17:53.641Z,90.50
2018-09-22T15:22:53.853Z,91.20
2018-09-22T15:25:24.294Z,91.50
2018-09-22T15:27:54.935Z,91.90
2018-09-22T15:30:25.330Z,91.60
2018-09-22T15:32:55.758Z,92.20
2018-09-22T15:35:26.114Z,92.60
2018-09-22T15:37:56.438Z,91.80
2018-09-22T15:40:27.018Z,92.10
2018-09-22T15:42:57.487Z,91.90
2018-09-22T15:45:27.946Z,91.90
2018-09-22T15:47:58.368Z,92.10
2018-09-22T15:50:28.802Z,92.30
2018-09-22T15:52:59.103Z,92.40
2018-09-22T15:57:58.977Z,93.10
2018-09-22T16:00:29.289Z,93.30
2018-09-22T16:02:59.621Z,93.90
2018-09-22T16:05:30.159Z,94.30
2018-09-22T16:08:00.375Z,93.80
2018-09-22T16:10:30.639Z,94.10
2018-09-22T16:13:01.112Z,94.20
2018-09-22T16:15:31.636Z,94.70
2018-09-22T16:18:13.945Z,94.50
2018-09-22T16:20:44.283Z,94.70
2018-09-22T16:23:14.507Z,94.50
2018-09-22T16:25:44.798Z,95.00
2018-09-22T16:28:15.074Z,95.30
2018-09-22T16:30:45.456Z,96.10
2018-09-22T16:33:16.592Z,96.20
2018-09-22T16:35:47.106Z,96.30
2018-09-22T16:38:17.502Z,96.80
2018-09-22T16:40:47.989Z,96.50
2018-09-22T16:43:18.276Z,96.70
2018-09-22T16:45:48.635Z,97.00
2018-09-22T16:48:18.964Z,97.30
2018-09-22T16:50:49.338Z,97.90
2018-09-22T16:53:19.831Z,98.40
2018-09-22T16:55:50.357Z,98.00
2018-09-22T16:58:20.869Z,98.50
2018-09-22T17:00:51.640Z,98.80
2018-09-22T17:03:22.029Z,99.10
2018-09-22T17:05:52.367Z,99.70
2018-09-22T17:08:23.051Z,99.90
2018-09-22T17:10:53.395Z,99.90
2018-09-22T17:13:23.841Z,99.90
2018-09-22T17:15:54.327Z,99.90
2018-09-22T17:18:24.640Z,99.90
2018-09-22T17:20:55.078Z,99.90
2018-09-22T17:23:25.378Z,99.90
2018-09-22T17:25:55.765Z,99.90
2018-09-22T17:28:26.030Z,99.90
2018-09-22T17:30:56.520Z,99.90
2018-09-22T17:33:26.904Z,99.90
2018-09-22T17:35:57.406Z,99.90
2018-09-22T17:38:27.834Z,99.90
2018-09-22T17:40:59.319Z,99.90
2018-09-22T17:43:30.592Z,99.90
2018-09-22T17:46:00.899Z,99.90
2018-09-22T17:48:31.182Z,99.90
2018-09-22T17:51:01.526Z,99.90
2018-09-22T17:53:32.000Z,99.90
2018-09-22T17:56:02.516Z,99.90
2018-09-22T17:58:32.913Z,99.90
2018-09-22T18:04:02.038Z,99.90
2018-09-22T18:09:02.864Z,99.90
2018-09-22T18:11:34.225Z,99.90
2018-09-22T18:14:04.694Z,99.90
2018-09-22T18:16:35.033Z,99.90
2018-09-22T18:19:10.337Z,99.90
2018-09-22T18:27:01.842Z,99.90
2018-09-22T18:29:32.234Z,99.90
2018-09-22T18:32:03.478Z,99.90
2018-09-22T18:34:33.907Z,99.90
2018-09-22T18:37:04.287Z,99.90
2018-09-22T18:39:35.569Z,99.90
2018-09-22T18:52:16.851Z,99.90
2018-09-22T18:54:48.194Z,99.90
2018-09-22T18:57:24.876Z,99.90
2018-09-22T18:59:56.128Z,99.90
2018-09-22T19:02:31.654Z,99.90
2018-09-22T19:05:03.207Z,99.90
2018-09-22T19:07:34.291Z,99.90
2018-09-22T19:10:08.732Z,99.90
2018-09-22T19:12:39.120Z,99.90
2018-09-22T19:15:15.052Z,99.90
2018-09-22T19:18:01.603Z,99.90
2018-09-22T19:20:37.025Z,99.90
2018-09-22T19:23:17.169Z,99.90
2018-09-22T19:25:51.208Z,99.90
2018-09-22T19:28:32.033Z,99.90
2018-09-22T19:31:06.469Z,99.90
2018-09-22T19:33:40.640Z,99.90
2018-09-22T19:36:46.320Z,99.90
2018-09-22T19:39:23.199Z,99.90
2018-09-22T19:42:08.268Z,99.90
2018-09-22T19:44:49.715Z,99.90
2018-09-22T19:50:03.612Z,99.90
2018-09-22T19:52:41.206Z,99.90
2018-09-22T19:55:11.861Z,99.90
2018-09-22T19:57:42.429Z,99.90
2018-09-22T20:00:12.985Z,99.90
2018-09-22T20:02:43.289Z,99.90
2018-09-22T20:05:18.824Z,99.90
2018-09-22T20:10:20.464Z,99.90
2018-09-22T20:12:58.823Z,99.90
2018-09-22T20:15:29.271Z,99.90
2018-09-22T20:17:59.704Z,99.90
2018-09-22T20:20:30.295Z,99.90
2018-09-22T20:23:00.704Z,99.90
2018-09-22T20:25:31.291Z,99.90
2018-09-22T20:28:01.756Z,99.90
2018-09-22T20:30:32.352Z,99.90
2018-09-22T20:33:02.844Z,99.90
2018-09-22T20:35:33.260Z,99.90
2018-09-22T20:38:03.597Z,99.90
2018-09-22T20:43:03.557Z,99.90
2018-09-22T20:45:34.047Z,99.90
2018-09-22T20:48:04.801Z,99.90
2018-09-22T20:50:41.348Z,99.90
2018-09-22T20:53:11.756Z,99.90
2018-09-22T20:55:42.241Z,99.90
2018-09-22T20:58:12.838Z,99.90
2018-09-22T21:05:42.471Z,99.90
2018-09-22T21:08:12.880Z,99.90
2018-09-22T21:10:43.327Z,99.90
2018-09-22T21:13:13.607Z,99.90
2018-09-22T21:15:43.893Z,99.90
2018-09-22T21:18:14.147Z,99.90
2018-09-22T21:20:44.784Z,99.90
2018-09-22T21:23:15.331Z,99.90
2018-09-22T21:25:45.808Z,99.90
2018-09-22T21:28:16.320Z,99.90
2018-09-22T21:33:16.386Z,99.90
2018-09-22T21:35:46.703Z,99.90
2018-09-22T21:38:16.953Z,99.90
2018-09-22T21:40:47.403Z,99.90
2018-09-22T21:43:17.992Z,99.90
2018-09-22T21:45:48.210Z,99.90
2018-09-22T21:48:18.455Z,99.90
2018-09-22T21:50:48.925Z,99.90
2018-09-22T21:53:19.460Z,99.90
2018-09-22T21:58:19.397Z,99.90
2018-09-22T22:00:52.044Z,99.90
2018-09-22T22:03:23.225Z,99.90
2018-09-22T22:05:53.659Z,99.90
2018-09-22T22:08:23.956Z,99.90
2018-09-22T22:13:24.015Z,99.90
2018-09-22T22:15:54.445Z,99.90
2018-09-22T22:18:24.615Z,99.90
2018-09-22T22:20:54.997Z,99.90
2018-09-22T22:23:25.133Z,99.90
2018-09-22T22:25:55.441Z,99.90
2018-09-22T22:28:25.863Z,99.90
2018-09-22T22:30:56.375Z,99.90
2018-09-22T22:33:26.697Z,99.90
2018-09-22T22:35:56.945Z,99.90
2018-09-22T22:38:27.401Z,99.90
2018-09-22T22:40:57.864Z,99.90
2018-09-22T22:43:28.177Z,99.90
2018-09-22T22:45:58.480Z,99.90
2018-09-22T22:48:29.073Z,99.90
2018-09-22T22:50:59.576Z,99.90
2018-09-22T23:00:58.897Z,99.90
2018-09-22T23:03:29.245Z,99.90
2018-09-22T23:08:29.240Z,99.90
2018-09-22T23:10:59.527Z,99.90
2018-09-22T23:13:29.888Z,99.90
2018-09-22T23:16:00.201Z,99.90
2018-09-22T23:18:30.705Z,99.90
2018-09-22T23:21:01.151Z,99.90
2018-09-22T23:23:31.925Z,99.90
2018-09-22T23:26:02.304Z,99.90
2018-09-22T23:28:32.685Z,99.90
2018-09-22T23:33:32.827Z,99.90
2018-09-22T23:41:02.404Z,99.90
2018-09-22T23:43:32.662Z,99.90
2018-09-22T23:46:03.073Z,99.90
2018-09-22T23:48:33.500Z,99.90
2018-09-22T23:51:03.817Z,99.90
2018-09-22T23:53:34.221Z,99.90
2018-09-22T23:56:04.493Z,99.90
2018-09-22T23:58:34.729Z,99.90
